createdAt,value
2016-05-21T00:00:10.061Z,20.07
2016-05-21T00:01:10.109Z,20.02
2016-05-21T00:02:10.112Z,20
2016-05-21T00:03:10.147Z,19.99
2016-05-21T00:04:09.867Z,19.94
2016-05-21T00:05:10.199Z,19.94
2016-05-21T00:06:10.232Z,19.96
2016-05-21T00:07:10.251Z,19.91
2016-05-21T00:08:10.269Z,19.95
2016-05-21T00:09:10.319Z,19.89
2016-05-21T00:10:10.337Z,19.74
2016-05-21T00:11:10.477Z,19.81
2016-05-21T00:12:10.417Z,19.82
2016-05-21T00:13:10.451Z,19.79
2016-05-21T00:14:10.485Z,19.82
2016-05-21T00:15:10.535Z,19.7
2016-05-21T00:16:10.593Z,19.84
2016-05-21T00:17:10.601Z,19.74
2016-05-21T00:18:10.641Z,19.82
2016-05-21T00:19:10.665Z,19.74
2016-05-21T00:20:10.688Z,19.74
2016-05-21T00:21:10.741Z,19.79
2016-05-21T00:22:10.747Z,19.84
2016-05-21T00:23:10.782Z,19.77
2016-05-21T00:24:10.663Z,19.69
2016-05-21T00:25:10.839Z,19.71
2016-05-21T00:26:11.640Z,19.7
2016-05-21T00:27:10.894Z,19.67
2016-05-21T00:28:10.928Z,19.69
2016-05-21T00:29:10.947Z,19.69
2016-05-21T00:30:10.981Z,19.63
2016-05-21T00:31:11.001Z,19.58
2016-05-21T00:32:11.035Z,19.66
2016-05-21T00:33:11.053Z,19.69
2016-05-21T00:34:10.931Z,19.66
2016-05-21T00:35:11.106Z,19.66
2016-05-21T00:36:11.123Z,19.69
2016-05-21T00:37:11.158Z,19.58
2016-05-21T00:38:11.036Z,19.56
2016-05-21T00:39:11.209Z,19.67
2016-05-21T00:40:11.244Z,19.55
2016-05-21T00:41:11.106Z,19.62
2016-05-21T00:42:11.124Z,19.63
2016-05-21T00:43:11.314Z,19.64
2016-05-21T00:44:11.332Z,19.63
2016-05-21T00:45:11.367Z,19.66
2016-05-21T00:46:11.401Z,19.49
2016-05-21T00:47:11.419Z,19.54
2016-05-21T00:48:11.438Z,19.67
2016-05-21T00:49:11.315Z,19.47
2016-05-21T00:50:11.505Z,19.54
2016-05-21T00:51:11.539Z,19.52
2016-05-21T00:52:11.557Z,19.55
2016-05-21T00:53:11.576Z,19.51
2016-05-21T00:54:11.593Z,19.55
2016-05-21T00:55:11.643Z,19.49
2016-05-21T00:56:12.068Z,19.55
2016-05-21T00:57:11.523Z,19.48
2016-05-21T00:58:11.698Z,19.54
2016-05-21T00:59:11.732Z,19.52
2016-05-21T01:00:11.751Z,19.48
2016-05-21T01:01:11.629Z,19.48
2016-05-21T01:02:11.803Z,19.47
2016-05-21T01:03:11.837Z,19.37
2016-05-21T01:04:11.871Z,19.48
2016-05-21T01:05:11.889Z,19.39
2016-05-21T01:06:11.907Z,19.37
2016-05-21T01:07:11.926Z,19.41
2016-05-21T01:08:11.959Z,19.4
2016-05-21T01:09:11.994Z,19.36
2016-05-21T01:10:12.011Z,19.41
2016-05-21T01:11:12.061Z,19.36
2016-05-21T01:12:12.064Z,19.4
2016-05-21T01:13:11.785Z,19.34
2016-05-21T01:14:12.117Z,19.45
2016-05-21T01:15:12.181Z,19.44
2016-05-21T01:16:12.169Z,19.33
2016-05-21T01:17:12.203Z,19.3
2016-05-21T01:18:12.221Z,19.3
2016-05-21T01:19:12.255Z,19.4
2016-05-21T01:20:12.289Z,19.31
2016-05-21T01:21:12.291Z,19.3
2016-05-21T01:22:12.341Z,19.3
2016-05-21T01:23:12.360Z,19.3
2016-05-21T01:24:12.393Z,19.29
2016-05-21T01:25:12.396Z,19.33
2016-05-21T01:26:12.429Z,19.22
2016-05-21T01:27:12.448Z,19.22
2016-05-21T01:28:12.482Z,19.26
2016-05-21T01:29:12.344Z,19.24
2016-05-21T01:30:12.535Z,19.29
2016-05-21T01:31:12.568Z,19.3
2016-05-21T01:32:12.587Z,19.34
2016-05-21T01:33:12.621Z,19.27
2016-05-21T01:34:12.639Z,19.27
2016-05-21T01:35:12.673Z,19.27
2016-05-21T01:36:12.692Z,19.22
2016-05-21T01:37:12.709Z,19.19
2016-05-21T01:38:12.728Z,19.21
2016-05-21T01:39:12.762Z,19.19
2016-05-21T01:40:12.655Z,19.27
2016-05-21T01:41:12.517Z,19.18
2016-05-21T01:42:12.864Z,19.26
2016-05-21T01:43:12.867Z,19.16
2016-05-21T01:44:12.901Z,19.14
2016-05-21T01:45:12.919Z,19.22
2016-05-21T01:46:12.953Z,19.16
2016-05-21T01:47:12.971Z,19.14
2016-05-21T01:48:12.849Z,19.14
2016-05-21T01:49:13.023Z,19.14
2016-05-21T01:50:12.744Z,19.08
2016-05-21T01:51:13.091Z,19.12
2016-05-21T01:52:13.109Z,19.11
2016-05-21T01:53:12.971Z,19.12
2016-05-21T01:54:13.146Z,19.07
2016-05-21T01:55:13.024Z,19.08
2016-05-21T01:56:13.214Z,19.12
2016-05-21T01:57:13.232Z,19.07
2016-05-21T01:58:13.094Z,19.11
2016-05-21T01:59:13.269Z,19.04
2016-05-21T02:00:13.302Z,19.09
2016-05-21T02:01:13.337Z,18.99
2016-05-21T02:02:13.354Z,18.99
2016-05-21T02:03:13.373Z,19.02
2016-05-21T02:04:13.423Z,18.99
2016-05-21T02:05:13.425Z,18.96
2016-05-21T02:06:13.475Z,18.99
2016-05-21T02:07:13.478Z,19.07
2016-05-21T02:08:13.527Z,19
2016-05-21T02:09:13.530Z,18.89
2016-05-21T02:10:13.579Z,18.92
2016-05-21T02:11:13.754Z,19.02
2016-05-21T02:12:13.601Z,18.96
2016-05-21T02:13:13.478Z,18.93
2016-05-21T02:14:13.356Z,18.98
2016-05-21T02:15:13.531Z,18.92
2016-05-21T02:16:13.705Z,18.98
2016-05-21T02:17:13.739Z,18.95
2016-05-21T02:18:13.600Z,18.93
2016-05-21T02:19:13.791Z,18.99
2016-05-21T02:20:13.810Z,18.9
2016-05-21T02:21:13.844Z,18.9
2016-05-21T02:22:13.861Z,18.89
2016-05-21T02:23:13.896Z,18.89
2016-05-21T02:24:13.914Z,18.83
2016-05-21T02:25:13.777Z,18.95
2016-05-21T02:26:13.826Z,18.9
2016-05-21T02:27:13.984Z,18.95
2016-05-21T02:28:13.863Z,18.92
2016-05-21T02:29:14.037Z,19
2016-05-21T02:30:14.055Z,18.92
2016-05-21T02:31:14.090Z,18.96
2016-05-21T02:32:13.951Z,18.9
2016-05-21T02:33:14.032Z,18.92
2016-05-21T02:34:14.159Z,18.84
2016-05-21T02:35:14.194Z,18.89
2016-05-21T02:36:14.227Z,18.89
2016-05-21T02:37:14.246Z,18.92
2016-05-21T02:38:14.265Z,18.92
2016-05-21T02:39:14.298Z,18.89
2016-05-21T02:40:14.176Z,18.86
2016-05-21T02:41:14.037Z,18.86
2016-05-21T02:42:14.212Z,18.83
2016-05-21T02:43:14.403Z,18.9
2016-05-21T02:44:14.264Z,18.86
2016-05-21T02:45:14.439Z,18.89
2016-05-21T02:46:14.472Z,18.83
2016-05-21T02:47:14.507Z,18.81
2016-05-21T02:48:14.525Z,18.84
2016-05-21T02:49:14.544Z,18.84
2016-05-21T02:50:14.578Z,18.8
2016-05-21T02:51:14.627Z,18.84
2016-05-21T02:52:14.630Z,18.83
2016-05-21T02:53:14.649Z,18.78
2016-05-21T02:54:14.697Z,18.84
2016-05-21T02:55:15.450Z,18.84
2016-05-21T02:56:14.891Z,18.75
2016-05-21T02:57:14.752Z,18.8
2016-05-21T02:58:14.787Z,18.77
2016-05-21T02:59:14.836Z,18.75
2016-05-21T03:00:14.855Z,18.81
2016-05-21T03:01:14.701Z,18.78
2016-05-21T03:02:14.875Z,18.74
2016-05-21T03:03:14.910Z,18.8
2016-05-21T03:04:14.771Z,18.75
2016-05-21T03:05:14.790Z,18.77
2016-05-21T03:06:14.823Z,18.75
2016-05-21T03:07:14.998Z,18.78
2016-05-21T03:08:14.720Z,18.8
2016-05-21T03:09:15.051Z,18.7
2016-05-21T03:10:14.928Z,18.75
2016-05-21T03:11:15.087Z,18.78
2016-05-21T03:12:15.121Z,18.81
2016-05-21T03:13:14.998Z,18.75
2016-05-21T03:14:15.173Z,18.8
2016-05-21T03:15:15.208Z,18.7
2016-05-21T03:16:15.241Z,18.75
2016-05-21T03:17:15.259Z,18.74
2016-05-21T03:18:15.278Z,18.74
2016-05-21T03:19:15.311Z,18.7
2016-05-21T03:20:15.331Z,18.65
2016-05-21T03:21:15.349Z,18.7
2016-05-21T03:22:15.227Z,18.66
2016-05-21T03:23:15.401Z,18.73
2016-05-21T03:24:15.450Z,18.77
2016-05-21T03:25:15.453Z,18.73
2016-05-21T03:26:15.815Z,18.73
2016-05-21T03:27:15.506Z,18.65
2016-05-21T03:28:15.524Z,18.68
2016-05-21T03:29:15.557Z,18.68
2016-05-21T03:30:15.591Z,18.65
2016-05-21T03:31:15.454Z,18.62
2016-05-21T03:32:15.628Z,18.63
2016-05-21T03:33:15.677Z,18.62
2016-05-21T03:34:15.680Z,18.62
2016-05-21T03:35:15.730Z,18.62
2016-05-21T03:36:15.576Z,18.59
2016-05-21T03:37:15.751Z,18.63
2016-05-21T03:38:15.785Z,18.66
2016-05-21T03:39:15.803Z,18.59
2016-05-21T03:40:15.681Z,18.63
2016-05-21T03:41:16.231Z,18.6
2016-05-21T03:42:15.889Z,18.63
2016-05-21T03:43:15.908Z,18.6
2016-05-21T03:44:15.926Z,18.62
2016-05-21T03:45:15.959Z,18.59
2016-05-21T03:46:15.978Z,18.59
2016-05-21T03:47:15.950Z,18.66
2016-05-21T03:48:16.031Z,18.59
2016-05-21T03:49:16.064Z,18.65
2016-05-21T03:50:16.083Z,18.68
2016-05-21T03:51:16.101Z,18.63
2016-05-21T03:52:16.135Z,18.65
2016-05-21T03:53:16.169Z,18.59
2016-05-21T03:54:16.031Z,18.58
2016-05-21T03:55:16.221Z,18.58
2016-05-21T03:56:16.708Z,18.6
2016-05-21T03:57:16.258Z,18.66
2016-05-21T03:58:16.292Z,18.6
2016-05-21T03:59:16.326Z,18.58
2016-05-21T04:00:16.329Z,18.58
2016-05-21T04:01:16.362Z,18.55
2016-05-21T04:02:16.380Z,18.62
2016-05-21T04:03:16.415Z,18.58
2016-05-21T04:04:16.433Z,18.59
2016-05-21T04:05:16.310Z,18.6
2016-05-21T04:06:16.485Z,18.63
2016-05-21T04:07:16.519Z,18.58
2016-05-21T04:08:16.537Z,18.63
2016-05-21T04:09:16.556Z,18.58
2016-05-21T04:10:16.574Z,18.56
2016-05-21T04:11:16.623Z,18.6
2016-05-21T04:12:16.626Z,18.59
2016-05-21T04:13:16.660Z,18.62
2016-05-21T04:14:16.679Z,18.6
2016-05-21T04:15:16.713Z,18.6
2016-05-21T04:16:16.747Z,18.59
2016-05-21T04:17:16.750Z,18.63
2016-05-21T04:18:16.877Z,18.65
2016-05-21T04:19:16.817Z,18.59
2016-05-21T04:20:16.679Z,18.63
2016-05-21T04:21:16.870Z,18.62
2016-05-21T04:22:16.888Z,18.63
2016-05-21T04:23:16.922Z,18.62
2016-05-21T04:24:16.939Z,18.63
2016-05-21T04:25:16.959Z,18.63
2016-05-21T04:26:17.007Z,18.63
2016-05-21T04:27:17.026Z,18.66
2016-05-21T04:28:17.029Z,18.7
2016-05-21T04:29:17.063Z,18.62
2016-05-21T04:30:16.925Z,18.66
2016-05-21T04:31:17.130Z,18.6
2016-05-21T04:32:17.133Z,18.7
2016-05-21T04:33:17.167Z,18.68
2016-05-21T04:34:17.185Z,18.66
2016-05-21T04:35:17.219Z,18.68
2016-05-21T04:36:17.237Z,18.77
2016-05-21T04:37:17.257Z,18.75
2016-05-21T04:38:17.134Z,18.75
2016-05-21T04:39:17.309Z,18.7
2016-05-21T04:40:17.343Z,18.59
2016-05-21T04:41:17.376Z,18.65
2016-05-21T04:42:17.395Z,18.73
2016-05-21T04:43:17.412Z,18.71
2016-05-21T04:44:17.431Z,18.75
2016-05-21T04:45:17.450Z,18.65
2016-05-21T04:46:17.171Z,18.71
2016-05-21T04:47:17.345Z,18.65
2016-05-21T04:48:17.536Z,18.74
2016-05-21T04:49:17.554Z,18.74
2016-05-21T04:50:17.589Z,18.73
2016-05-21T04:51:17.606Z,18.74
2016-05-21T04:52:17.640Z,18.78
2016-05-21T04:53:17.658Z,18.7
2016-05-21T04:54:17.692Z,18.78
2016-05-21T04:55:17.711Z,18.77
2016-05-21T04:56:17.745Z,18.71
2016-05-21T04:57:17.747Z,18.78
2016-05-21T04:58:17.624Z,18.75
2016-05-21T04:59:17.816Z,18.75
2016-05-21T05:00:17.693Z,18.84
2016-05-21T05:01:17.852Z,18.83
2016-05-21T05:02:17.571Z,18.78
2016-05-21T05:03:17.904Z,18.83
2016-05-21T05:04:17.782Z,18.81
2016-05-21T05:05:17.957Z,18.83
2016-05-21T05:06:18.006Z,18.86
2016-05-21T05:07:18.009Z,18.83
2016-05-21T05:08:18.042Z,18.84
2016-05-21T05:09:18.061Z,18.83
2016-05-21T05:10:18.095Z,18.86
2016-05-21T05:11:18.145Z,18.92
2016-05-21T05:12:17.973Z,18.88
2016-05-21T05:13:18.165Z,18.9
2016-05-21T05:14:18.184Z,18.83
2016-05-21T05:15:18.059Z,18.95
2016-05-21T05:16:18.237Z,18.86
2016-05-21T05:17:18.270Z,18.92
2016-05-21T05:18:18.289Z,18.99
2016-05-21T05:19:18.306Z,18.98
2016-05-21T05:20:18.340Z,18.99
2016-05-21T05:21:18.359Z,18.95
2016-05-21T05:22:18.392Z,19.07
2016-05-21T05:23:18.411Z,18.92
2016-05-21T05:24:18.445Z,18.98
2016-05-21T05:25:18.367Z,19
2016-05-21T05:26:18.700Z,19.02
2016-05-21T05:27:18.516Z,19.11
2016-05-21T05:28:18.533Z,19.07
2016-05-21T05:29:18.569Z,19.07
2016-05-21T05:30:18.428Z,19.11
2016-05-21T05:31:18.617Z,19.18
2016-05-21T05:32:18.619Z,19.22
2016-05-21T05:33:18.669Z,19.18
2016-05-21T05:34:18.672Z,19.15
2016-05-21T05:35:18.707Z,19.29
2016-05-21T05:36:18.724Z,19.26
2016-05-21T05:37:18.759Z,19.24
2016-05-21T05:38:18.792Z,19.27
2016-05-21T05:39:18.826Z,19.26
2016-05-21T05:40:18.845Z,19.24
2016-05-21T05:41:18.832Z,19.36
2016-05-21T05:42:18.912Z,19.3
2016-05-21T05:43:18.915Z,19.33
2016-05-21T05:44:18.934Z,19.4
2016-05-21T05:45:18.968Z,19.37
2016-05-21T05:46:18.986Z,19.34
2016-05-21T05:47:19.020Z,19.4
2016-05-21T05:48:18.928Z,19.37
2016-05-21T05:49:19.072Z,19.44
2016-05-21T05:50:19.090Z,19.45
2016-05-21T05:51:18.968Z,19.55
2016-05-21T05:52:19.158Z,19.58
2016-05-21T05:53:19.286Z,19.55
2016-05-21T05:54:19.195Z,19.48
2016-05-21T05:55:19.213Z,19.48
2016-05-21T05:56:19.544Z,19.56
2016-05-21T05:57:19.281Z,19.58
2016-05-21T05:58:19.300Z,19.63
2016-05-21T05:59:19.317Z,19.59
2016-05-21T06:00:19.352Z,19.59
2016-05-21T06:01:19.369Z,19.64
2016-05-21T06:02:19.404Z,19.55
2016-05-21T06:03:19.422Z,19.76
2016-05-21T06:04:19.441Z,19.71
2016-05-21T06:05:19.475Z,19.74
2016-05-21T06:06:19.383Z,19.81
2016-05-21T06:07:19.543Z,19.81
2016-05-21T06:08:19.545Z,19.79
2016-05-21T06:09:19.579Z,19.84
2016-05-21T06:10:19.457Z,19.82
2016-05-21T06:11:19.554Z,19.76
2016-05-21T06:12:19.649Z,19.95
2016-05-21T06:13:19.762Z,19.91
2016-05-21T06:14:19.655Z,19.99
2016-05-21T06:15:19.720Z,19.96
2016-05-21T06:16:19.660Z,19.94
2016-05-21T06:17:19.788Z,20.03
2016-05-21T06:18:19.806Z,20
2016-05-21T06:19:19.668Z,20.03
2016-05-21T06:20:19.859Z,20.07
2016-05-21T06:21:19.876Z,19.99
2016-05-21T06:22:19.754Z,20.13
2016-05-21T06:23:19.929Z,20.14
2016-05-21T06:24:19.964Z,20.14
2016-05-21T06:25:19.981Z,20.1
2016-05-21T06:26:20.015Z,20.1
2016-05-21T06:27:19.878Z,20.26
2016-05-21T06:28:20.052Z,20.31
2016-05-21T06:29:20.086Z,20.28
2016-05-21T06:30:20.120Z,20.29
2016-05-21T06:31:20.138Z,20.32
2016-05-21T06:32:20.156Z,20.32
2016-05-21T06:33:20.049Z,20.41
2016-05-21T06:34:20.224Z,20.39
2016-05-21T06:35:20.243Z,20.52
2016-05-21T06:36:20.277Z,20.47
2016-05-21T06:37:20.295Z,20.52
2016-05-21T06:38:20.157Z,20.56
2016-05-21T06:39:20.347Z,20.59
2016-05-21T06:40:20.366Z,20.6
2016-05-21T06:41:20.760Z,20.62
2016-05-21T06:42:20.417Z,20.6
2016-05-21T06:43:20.436Z,20.7
2016-05-21T06:44:20.470Z,20.77
2016-05-21T06:45:20.504Z,20.8
2016-05-21T06:46:20.522Z,20.8
2016-05-21T06:47:20.556Z,20.95
2016-05-21T06:48:20.574Z,20.81
2016-05-21T06:49:20.624Z,20.96
2016-05-21T06:50:20.643Z,20.92
2016-05-21T06:51:20.661Z,20.97
2016-05-21T06:52:20.679Z,21.03
2016-05-21T06:53:20.712Z,21
2016-05-21T06:54:20.731Z,21.07
2016-05-21T06:55:20.593Z,21.12
2016-05-21T06:56:20.815Z,21.17
2016-05-21T06:57:20.817Z,21.15
2016-05-21T06:58:20.851Z,21.18
2016-05-21T06:59:20.870Z,21.12
2016-05-21T07:00:20.888Z,21.21
2016-05-21T07:01:20.922Z,21.21
2016-05-21T07:02:20.956Z,21.21
2016-05-21T07:03:20.958Z,21.24
2016-05-21T07:04:20.992Z,21.3
2016-05-21T07:05:21.027Z,21.32
2016-05-21T07:06:21.045Z,21.35
2016-05-21T07:07:21.079Z,21.3
2016-05-21T07:08:21.097Z,21.3
2016-05-21T07:09:21.131Z,21.33
2016-05-21T07:10:21.165Z,21.4
2016-05-21T07:11:21.307Z,21.37
2016-05-21T07:12:21.218Z,21.37
2016-05-21T07:13:21.235Z,21.43
2016-05-21T07:14:21.254Z,21.4
2016-05-21T07:15:21.132Z,21.39
2016-05-21T07:16:21.306Z,21.32
2016-05-21T07:17:21.340Z,21.39
2016-05-21T07:18:21.359Z,21.42
2016-05-21T07:19:21.237Z,21.42
2016-05-21T07:20:21.254Z,21.46
2016-05-21T07:21:21.445Z,21.48
2016-05-21T07:22:21.463Z,21.4
2016-05-21T07:23:21.356Z,21.42
2016-05-21T07:24:21.515Z,21.48
2016-05-21T07:25:21.548Z,21.52
2016-05-21T07:26:21.443Z,21.57
2016-05-21T07:27:21.617Z,21.52
2016-05-21T07:28:21.478Z,21.57
2016-05-21T07:29:21.654Z,21.54
2016-05-21T07:30:21.687Z,21.58
2016-05-21T07:31:21.909Z,21.69
2016-05-21T07:32:21.740Z,21.75
2016-05-21T07:33:21.774Z,21.77
2016-05-21T07:34:21.792Z,21.72
2016-05-21T07:35:21.810Z,21.83
2016-05-21T07:36:21.688Z,21.82
2016-05-21T07:37:21.863Z,21.83
2016-05-21T07:38:21.896Z,21.98
2016-05-21T07:39:21.915Z,22
2016-05-21T07:40:21.949Z,22.04
2016-05-21T07:41:22.467Z,21.96
2016-05-21T07:42:22.001Z,22.14
2016-05-21T07:43:21.879Z,22.1
2016-05-21T07:44:22.054Z,22.15
2016-05-21T07:45:22.087Z,22.18
2016-05-21T07:46:22.105Z,22.29
2016-05-21T07:47:22.140Z,22.32
2016-05-21T07:48:22.002Z,22.43
2016-05-21T07:49:22.192Z,22.38
2016-05-21T07:50:21.898Z,22.36
2016-05-21T07:51:22.244Z,22.45
2016-05-21T07:52:22.262Z,22.47
2016-05-21T07:53:22.295Z,22.53
2016-05-21T07:54:22.174Z,22.51
2016-05-21T07:55:22.192Z,22.6
2016-05-21T07:56:22.226Z,22.55
2016-05-21T07:57:22.245Z,22.68
2016-05-21T07:58:22.434Z,22.69
2016-05-21T07:59:22.297Z,22.68
2016-05-21T08:00:22.503Z,22.84
2016-05-21T08:01:22.506Z,22.81
2016-05-21T08:02:22.555Z,22.81
2016-05-21T08:03:22.558Z,22.98
2016-05-21T08:04:22.591Z,22.96
2016-05-21T08:05:22.625Z,23.02
2016-05-21T08:06:22.644Z,23.09
2016-05-21T08:07:22.678Z,23.2
2016-05-21T08:08:22.696Z,23.12
2016-05-21T08:09:22.730Z,23.15
2016-05-21T08:10:22.749Z,23.24
2016-05-21T08:11:22.641Z,23.23
2016-05-21T08:12:22.800Z,23.17
2016-05-21T08:13:22.850Z,23.25
2016-05-21T08:14:22.852Z,23.41
2016-05-21T08:15:22.888Z,23.23
2016-05-21T08:16:22.920Z,23.28
2016-05-21T08:17:22.955Z,23.4
2016-05-21T08:18:22.973Z,23.39
2016-05-21T08:19:22.866Z,23.39
2016-05-21T08:20:23.026Z,23.44
2016-05-21T08:21:23.059Z,23.51
2016-05-21T08:22:23.093Z,23.44
2016-05-21T08:23:23.112Z,23.51
2016-05-21T08:24:23.129Z,23.55
2016-05-21T08:25:23.164Z,23.61
2016-05-21T08:26:23.401Z,23.62
2016-05-21T08:27:23.215Z,23.66
2016-05-21T08:28:23.250Z,23.71
2016-05-21T08:29:23.268Z,23.71
2016-05-21T08:30:23.303Z,23.76
2016-05-21T08:31:23.336Z,23.81
2016-05-21T08:32:23.386Z,23.81
2016-05-21T08:33:23.388Z,23.84
2016-05-21T08:34:23.422Z,23.87
2016-05-21T08:35:23.284Z,24.01
2016-05-21T08:36:23.459Z,24.08
2016-05-21T08:37:23.493Z,24.08
2016-05-21T08:38:23.527Z,24.16
2016-05-21T08:39:23.389Z,24.17
2016-05-21T08:40:23.579Z,24.18
2016-05-21T08:41:23.613Z,24.21
2016-05-21T08:42:23.475Z,24.24
2016-05-21T08:43:23.508Z,24.26
2016-05-21T08:44:23.699Z,24.39
2016-05-21T08:45:23.718Z,24.33
2016-05-21T08:46:23.751Z,24.36
2016-05-21T08:47:23.785Z,24.39
2016-05-21T08:48:23.804Z,24.5
2016-05-21T08:49:23.838Z,24.55
2016-05-21T08:50:23.871Z,24.58
2016-05-21T08:51:23.890Z,24.63
2016-05-21T08:52:23.751Z,24.61
2016-05-21T08:53:23.942Z,24.66
2016-05-21T08:54:23.976Z,24.81
2016-05-21T08:55:24.010Z,24.84
2016-05-21T08:56:24.481Z,24.85
2016-05-21T08:57:24.062Z,24.85
2016-05-21T08:58:24.081Z,24.95
2016-05-21T08:59:24.115Z,24.96
2016-05-21T09:00:24.164Z,25.08
2016-05-21T09:01:24.120Z,25.16
2016-05-21T09:02:24.059Z,25.13
2016-05-21T09:03:24.235Z,25.23
2016-05-21T09:04:24.253Z,25.26
2016-05-21T09:05:24.286Z,25.25
2016-05-21T09:06:24.181Z,25.35
2016-05-21T09:07:24.339Z,25.41
2016-05-21T09:08:24.373Z,25.47
2016-05-21T09:09:24.251Z,25.53
2016-05-21T09:10:24.426Z,25.55
2016-05-21T09:11:24.959Z,25.6
2016-05-21T09:12:24.478Z,25.72
2016-05-21T09:13:24.355Z,25.69
2016-05-21T09:14:24.233Z,25.8
2016-05-21T09:15:24.595Z,25.84
2016-05-21T09:16:24.441Z,25.87
2016-05-21T09:17:24.632Z,26
2016-05-21T09:18:24.688Z,26
2016-05-21T09:19:24.728Z,26.05
2016-05-21T09:20:24.782Z,26.13
2016-05-21T09:21:24.821Z,26.23
2016-05-21T09:22:24.877Z,26.33
2016-05-21T09:23:24.917Z,26.26
2016-05-21T09:24:24.959Z,26.36
2016-05-21T09:25:24.689Z,26.45
2016-05-21T09:26:25.199Z,26.51
2016-05-21T09:27:25.053Z,26.58
2016-05-21T09:28:25.089Z,26.65
2016-05-21T09:29:25.125Z,26.63
2016-05-21T09:30:25.022Z,26.68
2016-05-21T09:31:25.042Z,26.65
2016-05-21T09:32:25.236Z,26.77
2016-05-21T09:33:25.271Z,26.83
2016-05-21T09:34:25.290Z,26.8
2016-05-21T09:35:25.326Z,26.89
2016-05-21T09:36:25.345Z,26.9
2016-05-21T09:37:25.380Z,26.9
2016-05-21T09:38:25.258Z,26.96
2016-05-21T09:39:25.434Z,27.03
2016-05-21T09:40:25.467Z,27
2016-05-21T09:41:25.345Z,26.99
2016-05-21T09:42:25.521Z,27
2016-05-21T09:43:25.555Z,27.14
2016-05-21T09:44:25.588Z,27.07
2016-05-21T09:45:25.622Z,27.18
2016-05-21T09:46:25.640Z,27.2
2016-05-21T09:47:25.675Z,27.21
2016-05-21T09:48:25.709Z,27.33
2016-05-21T09:49:25.587Z,27.33
2016-05-21T09:50:25.603Z,27.44
2016-05-21T09:51:25.795Z,27.51
2016-05-21T09:52:25.828Z,27.51
2016-05-21T09:53:25.862Z,27.48
2016-05-21T09:54:25.880Z,27.55
2016-05-21T09:55:25.914Z,27.58
2016-05-21T09:56:25.980Z,27.6
2016-05-21T09:57:25.982Z,27.67
2016-05-21T09:58:26.000Z,27.65
2016-05-21T09:59:26.035Z,27.74
2016-05-21T10:00:26.085Z,27.75
2016-05-21T10:01:25.946Z,27.77
2016-05-21T10:02:26.136Z,27.87
2016-05-21T10:03:26.171Z,27.85
2016-05-21T10:04:26.189Z,28.05
2016-05-21T10:05:26.223Z,28.02
2016-05-21T10:06:26.085Z,28.02
2016-05-21T10:07:26.275Z,28.14
2016-05-21T10:08:26.309Z,28.22
2016-05-21T10:09:26.202Z,28.25
2016-05-21T10:10:26.377Z,28.33
2016-05-21T10:11:26.426Z,28.41
2016-05-21T10:12:26.429Z,28.44
2016-05-21T10:13:26.463Z,28.49
2016-05-21T10:14:26.184Z,28.64
2016-05-21T10:15:26.531Z,28.74
2016-05-21T10:16:26.564Z,28.78
2016-05-21T10:17:26.599Z,28.82
2016-05-21T10:18:26.617Z,28.96
2016-05-21T10:19:26.650Z,29.02
2016-05-21T10:20:26.684Z,29.07
2016-05-21T10:21:26.720Z,29.13
2016-05-21T10:22:26.737Z,29.17
2016-05-21T10:23:26.772Z,29.32
2016-05-21T10:24:26.650Z,29.38
2016-05-21T10:25:26.839Z,29.35
2016-05-21T10:26:27.247Z,29.39
2016-05-21T10:27:26.891Z,29.45
2016-05-21T10:28:26.925Z,29.47
2016-05-21T10:29:26.959Z,29.53
2016-05-21T10:30:26.993Z,29.59
2016-05-21T10:31:26.902Z,29.68
2016-05-21T10:32:27.061Z,29.66
2016-05-21T10:33:27.095Z,29.75
2016-05-21T10:34:27.129Z,29.75
2016-05-21T10:35:27.163Z,29.86
2016-05-21T10:36:27.197Z,29.91
2016-05-21T10:37:27.216Z,30.05
2016-05-21T10:38:27.249Z,30.18
2016-05-21T10:39:27.268Z,30.19
2016-05-21T10:40:27.302Z,30.23
2016-05-21T10:41:27.335Z,30.35
2016-05-21T10:42:27.368Z,30.39
2016-05-21T10:43:27.418Z,30.48
2016-05-21T10:44:27.453Z,30.51
2016-05-21T10:45:27.471Z,30.53
2016-05-21T10:46:27.504Z,30.57
2016-05-21T10:47:27.382Z,30.54
2016-05-21T10:48:27.573Z,30.62
2016-05-21T10:49:27.607Z,30.66
2016-05-21T10:50:27.625Z,30.65
2016-05-21T10:51:27.659Z,30.7
2016-05-21T10:52:27.693Z,30.73
2016-05-21T10:53:27.728Z,30.7
2016-05-21T10:54:27.761Z,30.68
2016-05-21T10:55:27.639Z,30.81
2016-05-21T10:56:27.548Z,30.72
2016-05-21T10:57:27.864Z,30.78
2016-05-21T10:58:27.896Z,30.84
2016-05-21T10:59:27.790Z,30.84
2016-05-21T11:00:27.964Z,30.88
2016-05-21T11:01:27.983Z,30.9
2016-05-21T11:02:28.016Z,30.99
2016-05-21T11:03:27.911Z,31.02
2016-05-21T11:04:28.100Z,31.03
2016-05-21T11:05:28.118Z,31.02
2016-05-21T11:06:28.152Z,31.06
2016-05-21T11:07:28.186Z,31.1
2016-05-21T11:08:28.221Z,31.05
2016-05-21T11:09:28.254Z,31.1
2016-05-21T11:10:28.273Z,31.12
2016-05-21T11:11:28.401Z,31.12
2016-05-21T11:12:28.200Z,31.14
2016-05-21T11:13:28.234Z,31.09
2016-05-21T11:14:28.424Z,31.09
2016-05-21T11:15:28.458Z,31.22
2016-05-21T11:16:28.476Z,31.24
2016-05-21T11:17:28.510Z,31.2
2016-05-21T11:18:28.545Z,31.29
2016-05-21T11:19:28.578Z,31.24
2016-05-21T11:20:28.628Z,31.25
2016-05-21T11:21:28.756Z,31.29
2016-05-21T11:22:28.695Z,31.31
2016-05-21T11:23:28.714Z,31.37
2016-05-21T11:24:28.842Z,31.46
2016-05-21T11:25:28.781Z,31.56
2016-05-21T11:26:28.769Z,31.61
2016-05-21T11:27:29.271Z,31.71
2016-05-21T11:28:28.884Z,31.74
2016-05-21T11:29:28.855Z,31.87
2016-05-21T11:30:28.952Z,31.9
2016-05-21T11:31:28.985Z,31.97
2016-05-21T11:32:29.019Z,32.14
2016-05-21T11:33:29.053Z,32.22
2016-05-21T11:34:29.088Z,32.33
2016-05-21T11:35:29.121Z,32.36
2016-05-21T11:36:29.155Z,32.45
2016-05-21T11:37:29.033Z,32.49
2016-05-21T11:38:29.317Z,32.63
2016-05-21T11:39:29.335Z,32.64
2016-05-21T11:40:29.291Z,32.7
2016-05-21T11:41:29.246Z,32.7
2016-05-21T11:42:29.749Z,32.8
2016-05-21T11:43:29.392Z,32.9
2016-05-21T11:44:29.271Z,32.89
2016-05-21T11:45:29.460Z,32.96
2016-05-21T11:46:29.495Z,33.01
2016-05-21T11:47:29.529Z,33.07
2016-05-21T11:48:29.407Z,33
2016-05-21T11:49:29.440Z,33.19
2016-05-21T11:50:29.631Z,33.22
2016-05-21T11:51:29.664Z,33.28
2016-05-21T11:52:29.698Z,33.31
2016-05-21T11:53:29.732Z,33.31
2016-05-21T11:54:29.766Z,33.31
2016-05-21T11:55:29.800Z,33.28
2016-05-21T11:56:29.693Z,33.3
2016-05-21T11:57:30.275Z,33.31
2016-05-21T11:58:29.761Z,33.31
2016-05-21T11:59:29.951Z,33.27
2016-05-21T12:00:29.969Z,33.27
2016-05-21T12:01:30.003Z,33.32
2016-05-21T12:02:30.099Z,33.28
2016-05-21T12:03:29.931Z,33.27
2016-05-21T12:04:30.122Z,33.27
2016-05-21T12:05:30.155Z,33.32
2016-05-21T12:06:30.032Z,33.42
2016-05-21T12:07:30.222Z,33.37
2016-05-21T12:08:30.257Z,33.49
2016-05-21T12:09:30.291Z,33.5
2016-05-21T12:10:30.185Z,33.47
2016-05-21T12:11:30.312Z,33.67
2016-05-21T12:12:30.502Z,33.64
2016-05-21T12:13:30.535Z,33.71
2016-05-21T12:14:30.476Z,33.83
2016-05-21T12:15:30.510Z,33.81
2016-05-21T12:16:30.544Z,33.9
2016-05-21T12:17:30.578Z,33.98
2016-05-21T12:18:30.612Z,34.01
2016-05-21T12:19:30.646Z,34.1
2016-05-21T12:20:30.679Z,34.16
2016-05-21T12:21:30.729Z,34.2
2016-05-21T12:22:30.763Z,34.16
2016-05-21T12:23:30.797Z,34.32
2016-05-21T12:24:30.815Z,34.29
2016-05-21T12:25:30.865Z,34.35
2016-05-21T12:26:31.414Z,34.39
2016-05-21T12:27:31.026Z,34.38
2016-05-21T12:28:30.826Z,34.43
2016-05-21T12:29:31.000Z,34.48
2016-05-21T12:30:31.128Z,34.6
2016-05-21T12:31:31.069Z,34.58
2016-05-21T12:32:31.119Z,34.64
2016-05-21T12:33:30.981Z,34.73
2016-05-21T12:34:31.186Z,34.61
2016-05-21T12:35:31.220Z,34.67
2016-05-21T12:36:31.097Z,34.67
2016-05-21T12:37:31.132Z,34.77
2016-05-21T12:38:31.321Z,34.75
2016-05-21T12:39:31.356Z,34.66
2016-05-21T12:40:31.390Z,34.67
2016-05-21T12:41:31.282Z,34.81
2016-05-21T12:42:31.317Z,34.77
2016-05-21T12:43:31.507Z,34.75
2016-05-21T12:44:31.557Z,34.85
2016-05-21T12:45:31.591Z,34.9
2016-05-21T12:46:31.609Z,34.9
2016-05-21T12:47:31.643Z,34.96
2016-05-21T12:48:31.692Z,34.99
2016-05-21T12:49:31.726Z,35
2016-05-21T12:50:31.745Z,34.96
2016-05-21T12:51:31.779Z,35.07
2016-05-21T12:52:31.829Z,34.99
2016-05-21T12:53:31.862Z,35.12
2016-05-21T12:54:31.912Z,35.1
2016-05-21T12:55:32.023Z,35.14
2016-05-21T12:56:31.979Z,35.15